Airport View

Enter AWOS ICAO identifier for current METAR.

ex. KFNL

KVDF 262150Z AUTO 03003KT 10SM SCT008 BKN043 OVC050 18/17 A2993 RMK AO2

26 Feb 2020 21:49

Frequency: 121.125

Phone: 813-630-0924

Other Area AWOS: KTPF - KPCM - KTPA - KMCF

TAF AMD KTPA 261928Z 2619/2724 31012G18KT 6SM -RA VCTS SCT007CB BKN015 TEMPO 2620/2624 3SM SHRA BKN007 FM270200 30012KT P6SM VCSH SCT007 OVC015 FM270600 33012G18KT P6SM SCT015 BKN040 FM271500 33012G18KT P6SM SCT250 FM272100 31012KT P6SM FEW250